createdAt,value
2018-11-26T00:00:35.551Z,52.57
2018-11-26T00:03:08.653Z,48.90
2018-11-26T00:05:38.910Z,51.53
2018-11-26T00:08:10.566Z,52.30
2018-11-26T00:10:51.012Z,56.70
2018-11-26T00:13:20.274Z,53.63
2018-11-26T00:15:49.564Z,53.43
2018-11-26T00:18:19.036Z,58.53
2018-11-26T00:20:48.461Z,55.03
2018-11-26T00:23:17.845Z,53.17
2018-11-26T00:25:47.117Z,52.60
2018-11-26T00:28:16.382Z,54.77
2018-11-26T00:30:45.605Z,56.77
2018-11-26T00:33:14.870Z,53.60
2018-11-26T00:35:44.102Z,56.87
2018-11-26T00:38:13.350Z,55.23
2018-11-26T00:40:42.612Z,58.27
2018-11-26T00:43:11.878Z,54.73
2018-11-26T00:45:42.069Z,57.37
2018-11-26T00:48:11.455Z,55.83
2018-11-26T00:50:40.687Z,52.90
2018-11-26T00:53:09.899Z,54.53
2018-11-26T00:55:39.227Z,54.37
2018-11-26T00:58:08.691Z,54.13
2018-11-26T01:00:37.958Z,56.10
2018-11-26T01:03:07.416Z,53.83
2018-11-26T01:05:38.053Z,55.53
2018-11-26T01:08:07.451Z,52.03
2018-11-26T01:10:36.709Z,53.90
2018-11-26T01:13:06.657Z,53.43
2018-11-26T01:15:36.006Z,54.03
2018-11-26T01:18:05.698Z,52.30
2018-11-26T01:20:34.958Z,54.17
2018-11-26T01:23:04.254Z,52.77
2018-11-26T01:25:33.498Z,53.30
2018-11-26T01:28:02.737Z,50.90
2018-11-26T01:30:31.994Z,52.67
2018-11-26T01:33:01.250Z,56.70
2018-11-26T01:35:30.488Z,51.63
2018-11-26T01:37:59.791Z,51.83
2018-11-26T01:40:34.522Z,48.67
2018-11-26T01:43:03.790Z,49.83
2018-11-26T01:45:33.034Z,49.97
2018-11-26T01:48:02.264Z,52.63
2018-11-26T01:50:31.570Z,51.10
2018-11-26T01:53:00.812Z,50.83
2018-11-26T01:55:30.121Z,46.97
2018-11-26T01:57:59.367Z,49.90
2018-11-26T02:00:28.616Z,48.30
2018-11-26T02:02:57.880Z,48.87
2018-11-26T02:05:27.145Z,50.23
2018-11-26T02:07:56.412Z,49.83
2018-11-26T02:10:25.649Z,49.30
2018-11-26T02:12:54.952Z,51.27
2018-11-26T02:15:36.475Z,49.73
2018-11-26T02:18:06.496Z,50.93
2018-11-26T02:20:35.778Z,52.23
2018-11-26T02:23:05.049Z,50.37
2018-11-26T02:25:34.278Z,46.93
2018-11-26T02:28:03.534Z,47.93
2018-11-26T02:30:32.793Z,47.43
2018-11-26T02:33:02.167Z,49.27
2018-11-26T02:35:31.398Z,49.27
2018-11-26T02:38:00.651Z,49.77
2018-11-26T02:40:31.865Z,48.07
2018-11-26T02:43:01.229Z,48.37
2018-11-26T02:45:30.544Z,47.17
2018-11-26T02:47:59.771Z,45.00
2018-11-26T02:50:29.012Z,47.70
2018-11-26T02:52:58.221Z,47.07
2018-11-26T02:55:27.452Z,44.90
2018-11-26T02:57:56.720Z,44.90
2018-11-26T03:00:26.056Z,41.30
2018-11-26T03:02:55.358Z,40.40
2018-11-26T03:05:28.673Z,44.57
2018-11-26T03:07:57.976Z,43.23
2018-11-26T03:10:27.213Z,44.83
2018-11-26T03:12:56.717Z,45.37
2018-11-26T03:15:26.044Z,46.43
2018-11-26T03:17:55.304Z,41.03
2018-11-26T03:20:24.559Z,42.10
2018-11-26T03:22:53.817Z,41.83
2018-11-26T03:25:23.077Z,42.03
2018-11-26T03:27:52.490Z,44.67
2018-11-26T03:30:22.476Z,46.50
2018-11-26T03:32:51.925Z,43.50
2018-11-26T03:35:21.165Z,43.43
2018-11-26T03:37:50.481Z,44.43
2018-11-26T03:40:19.783Z,41.30
2018-11-26T03:42:49.036Z,41.07
2018-11-26T03:45:18.927Z,41.60
2018-11-26T03:47:48.908Z,39.77
2018-11-26T03:50:18.181Z,38.07
2018-11-26T03:52:47.429Z,40.30
2018-11-26T03:55:16.895Z,42.07
2018-11-26T03:57:46.175Z,41.97
2018-11-26T04:00:16.769Z,39.63
2018-11-26T04:02:46.072Z,43.73
2018-11-26T04:05:15.406Z,42.17
2018-11-26T04:07:44.672Z,42.37
2018-11-26T04:10:14.344Z,40.63
2018-11-26T04:12:43.566Z,41.63
2018-11-26T04:15:14.617Z,41.27
2018-11-26T04:17:43.828Z,43.23
2018-11-26T04:20:13.056Z,39.93
2018-11-26T04:22:42.281Z,41.33
2018-11-26T04:25:11.526Z,41.10
2018-11-26T04:27:40.792Z,41.43
2018-11-26T04:30:11.764Z,38.87
2018-11-26T04:32:41.196Z,41.10
2018-11-26T04:35:11.488Z,39.77
2018-11-26T04:37:40.760Z,43.23
2018-11-26T04:40:10.661Z,40.83
2018-11-26T04:42:39.905Z,40.33
2018-11-26T04:45:10.504Z,43.43
2018-11-26T04:47:39.865Z,41.67
2018-11-26T04:50:11.452Z,44.90
2018-11-26T04:52:40.771Z,42.93
2018-11-26T04:55:11.228Z,42.37
2018-11-26T04:57:42.654Z,42.70
2018-11-26T05:00:12.474Z,43.63
2018-11-26T05:02:41.768Z,41.17
2018-11-26T05:05:12.343Z,40.13
2018-11-26T05:07:41.584Z,42.77
2018-11-26T05:10:12.062Z,44.10
2018-11-26T05:12:41.401Z,42.37
2018-11-26T05:15:11.989Z,44.23
2018-11-26T05:17:41.237Z,43.40
2018-11-26T05:20:12.454Z,41.63
2018-11-26T05:22:41.812Z,46.00
2018-11-26T05:25:11.732Z,40.93
2018-11-26T05:27:41.036Z,42.47
2018-11-26T05:30:11.763Z,43.30
2018-11-26T05:32:41.241Z,43.90
2018-11-26T05:35:11.476Z,43.77
2018-11-26T05:37:40.728Z,39.83
2018-11-26T05:40:13.146Z,41.77
2018-11-26T05:42:42.837Z,41.77
2018-11-26T05:45:16.395Z,42.87
2018-11-26T05:47:45.631Z,44.87
2018-11-26T05:50:15.569Z,44.73
2018-11-26T05:52:44.883Z,43.50
2018-11-26T05:55:15.338Z,41.40
2018-11-26T05:57:51.713Z,41.43
2018-11-26T06:00:27.193Z,47.33
2018-11-26T06:02:57.354Z,41.30
2018-11-26T06:05:26.609Z,43.40
2018-11-26T06:07:56.325Z,40.27
2018-11-26T06:10:25.671Z,38.30
2018-11-26T06:12:54.909Z,42.60
2018-11-26T06:15:24.152Z,42.60
2018-11-26T06:17:53.398Z,38.60
2018-11-26T06:20:22.822Z,42.07
2018-11-26T06:22:52.070Z,38.93
2018-11-26T06:25:22.719Z,40.40
2018-11-26T06:27:52.061Z,36.57
2018-11-26T06:30:21.409Z,35.17
2018-11-26T06:32:50.667Z,34.90
2018-11-26T06:35:22.036Z,36.87
2018-11-26T06:37:51.994Z,36.20
2018-11-26T06:40:21.242Z,35.30
2018-11-26T06:42:50.524Z,35.77
2018-11-26T06:45:21.789Z,34.23
2018-11-26T06:47:51.945Z,35.67
2018-11-26T06:50:21.843Z,29.83
2018-11-26T06:52:51.276Z,32.13
2018-11-26T06:55:21.475Z,36.03
2018-11-26T06:57:50.762Z,31.40
2018-11-26T07:00:20.882Z,31.27
2018-11-26T07:02:50.157Z,31.83
2018-11-26T07:05:21.526Z,31.80
2018-11-26T07:07:50.823Z,30.90
2018-11-26T07:10:20.933Z,28.40
2018-11-26T07:12:50.206Z,32.30
2018-11-26T07:15:20.887Z,28.50
2018-11-26T07:17:50.467Z,29.17
2018-11-26T07:20:21.173Z,31.73
2018-11-26T07:22:50.692Z,31.93
2018-11-26T07:25:21.170Z,32.20
2018-11-26T07:27:54.674Z,29.07
2018-11-26T07:30:26.253Z,27.33
2018-11-26T07:32:56.251Z,29.70
2018-11-26T07:35:25.516Z,28.27
2018-11-26T07:37:54.776Z,28.77
2018-11-26T07:40:24.063Z,28.43
2018-11-26T07:43:00.553Z,28.93
2018-11-26T07:45:29.967Z,30.67
2018-11-26T07:47:59.225Z,29.27
2018-11-26T07:50:28.590Z,31.27
2018-11-26T07:52:58.463Z,30.17
2018-11-26T07:55:27.804Z,30.80
2018-11-26T07:57:57.073Z,29.47
2018-11-26T08:00:26.405Z,32.50
2018-11-26T08:02:55.781Z,32.67
2018-11-26T08:05:25.104Z,29.43
2018-11-26T08:07:54.350Z,31.23
2018-11-26T08:10:24.421Z,29.70
2018-11-26T08:12:54.849Z,31.80
2018-11-26T08:15:26.144Z,28.40
2018-11-26T08:17:55.535Z,32.43
2018-11-26T08:20:24.792Z,27.47
2018-11-26T08:22:54.613Z,30.30
2018-11-26T08:25:24.556Z,31.33
2018-11-26T08:27:53.869Z,30.87
2018-11-26T08:30:25.607Z,29.30
2018-11-26T08:32:57.007Z,31.67
2018-11-26T08:35:26.417Z,29.27
2018-11-26T08:38:01.766Z,31.33
2018-11-26T08:40:35.346Z,29.33
2018-11-26T08:43:08.338Z,29.93
2018-11-26T08:45:39.032Z,32.00
2018-11-26T08:48:13.634Z,31.37
2018-11-26T08:50:42.887Z,29.83
2018-11-26T08:53:12.149Z,32.43
2018-11-26T08:55:41.419Z,32.43
2018-11-26T08:58:10.856Z,30.70
2018-11-26T09:00:40.158Z,34.53
2018-11-26T09:03:14.825Z,33.63
2018-11-26T09:05:46.501Z,32.77
2018-11-26T09:08:15.786Z,35.63
2018-11-26T09:10:45.971Z,31.97
2018-11-26T09:13:15.409Z,32.83
2018-11-26T09:15:44.772Z,36.13
2018-11-26T09:18:14.099Z,35.63
2018-11-26T09:20:43.506Z,35.57
2018-11-26T09:23:12.821Z,32.83
2018-11-26T09:25:42.066Z,34.20
2018-11-26T09:28:12.780Z,33.77
2018-11-26T09:30:42.133Z,35.10
2018-11-26T09:33:12.578Z,34.73
2018-11-26T09:35:41.828Z,35.37
2018-11-26T09:38:11.188Z,32.30
2018-11-26T09:40:40.409Z,33.10
2018-11-26T09:43:09.650Z,35.67
2018-11-26T09:45:40.508Z,35.37
2018-11-26T09:48:08.253Z,36.77
2018-11-26T09:50:37.489Z,33.50
2018-11-26T09:53:06.876Z,36.53
2018-11-26T09:55:36.158Z,32.77
2018-11-26T09:58:05.703Z,36.57
2018-11-26T10:00:35.061Z,35.00
2018-11-26T10:03:04.302Z,33.93
2018-11-26T10:05:33.600Z,31.27
2018-11-26T10:08:02.878Z,30.80
2018-11-26T10:10:32.972Z,32.87
2018-11-26T10:13:02.217Z,32.23
2018-11-26T10:15:31.785Z,32.17
2018-11-26T10:18:01.721Z,28.23
2018-11-26T10:20:31.033Z,31.57
2018-11-26T10:23:00.337Z,30.63
2018-11-26T10:25:29.653Z,30.13
2018-11-26T10:27:59.452Z,32.27
2018-11-26T10:30:28.708Z,31.37
2018-11-26T10:32:57.949Z,26.73
2018-11-26T10:35:27.181Z,29.27
2018-11-26T10:37:56.428Z,30.40
2018-11-26T10:40:27.495Z,28.63
2018-11-26T10:42:56.781Z,29.33
2018-11-26T10:45:26.249Z,26.17
2018-11-26T10:47:55.545Z,26.87
2018-11-26T10:50:26.098Z,26.60
2018-11-26T10:52:56.745Z,26.33
2018-11-26T10:55:29.758Z,28.67
2018-11-26T10:57:59.038Z,27.73
2018-11-26T11:00:38.618Z,27.53
2018-11-26T11:03:08.072Z,28.03
2018-11-26T11:05:37.824Z,28.13
2018-11-26T11:08:07.573Z,28.77
2018-11-26T11:10:36.881Z,26.07
2018-11-26T11:13:06.965Z,28.07
2018-11-26T11:15:36.930Z,26.43
2018-11-26T11:18:07.477Z,26.17
2018-11-26T11:20:36.905Z,24.57
2018-11-26T11:23:07.485Z,25.80
2018-11-26T11:25:36.976Z,27.70
2018-11-26T11:28:06.802Z,25.60
2018-11-26T11:30:36.127Z,27.33
2018-11-26T11:35:34.034Z,26.53
2018-11-26T11:38:03.267Z,22.50
2018-11-26T11:40:32.659Z,24.23
2018-11-26T11:43:02.387Z,23.03
2018-11-26T11:45:33.212Z,21.23
2018-11-26T11:48:02.506Z,23.00
2018-11-26T11:50:32.347Z,23.50
2018-11-26T11:53:01.591Z,21.07
2018-11-26T11:55:30.827Z,22.93
2018-11-26T11:58:00.102Z,22.17
2018-11-26T12:00:39.477Z,21.67
2018-11-26T12:03:13.159Z,22.67
2018-11-26T12:05:42.484Z,22.27
2018-11-26T12:08:11.851Z,16.87
2018-11-26T12:10:41.114Z,20.07
2018-11-26T12:13:11.490Z,19.63
2018-11-26T12:15:48.927Z,19.90
2018-11-26T12:18:18.249Z,18.57
2018-11-26T12:20:47.517Z,21.23
2018-11-26T12:23:16.855Z,17.43
2018-11-26T12:25:46.235Z,18.53
2018-11-26T12:28:15.597Z,19.73
2018-11-26T12:30:46.116Z,19.43
2018-11-26T12:33:15.429Z,18.10
2018-11-26T12:35:44.706Z,21.57
2018-11-26T12:38:13.969Z,18.77
2018-11-26T12:40:43.352Z,20.27
2018-11-26T12:43:12.774Z,19.93
2018-11-26T12:45:42.020Z,15.93
2018-11-26T12:48:11.400Z,19.90
2018-11-26T12:50:40.666Z,17.73
2018-11-26T12:53:10.224Z,18.07
2018-11-26T12:55:39.475Z,17.77
2018-11-26T12:58:08.875Z,17.13
2018-11-26T13:00:38.652Z,17.00
2018-11-26T13:03:11.507Z,18.37
2018-11-26T13:05:40.857Z,15.70
2018-11-26T13:08:10.142Z,15.90
2018-11-26T13:10:39.472Z,16.30
2018-11-26T13:13:09.855Z,17.10
2018-11-26T13:15:39.205Z,15.77
2018-11-26T13:18:08.572Z,17.07
2018-11-26T13:20:37.872Z,17.10
2018-11-26T13:23:08.619Z,15.50
2018-11-26T13:25:41.680Z,15.30
2018-11-26T13:28:09.240Z,15.70
2018-11-26T13:30:40.178Z,15.87
2018-11-26T13:33:11.174Z,15.33
2018-11-26T13:35:40.446Z,15.90
2018-11-26T13:38:10.054Z,16.27
2018-11-26T13:40:39.870Z,15.70
2018-11-26T13:43:12.622Z,15.20
2018-11-26T13:45:45.449Z,14.70
2018-11-26T13:48:16.007Z,15.47
2018-11-26T13:50:54.674Z,13.40
2018-11-26T13:53:24.011Z,14.07
2018-11-26T13:55:53.321Z,13.47
2018-11-26T13:58:22.586Z,14.37
2018-11-26T14:00:51.861Z,13.67
2018-11-26T14:03:21.091Z,12.57
2018-11-26T14:05:50.388Z,14.03
2018-11-26T14:08:19.732Z,14.90
2018-11-26T14:10:48.986Z,12.83
2018-11-26T14:13:18.322Z,12.70
2018-11-26T14:15:47.606Z,15.13
2018-11-26T14:18:16.837Z,11.73
2018-11-26T14:20:46.111Z,13.80
2018-11-26T14:23:15.434Z,12.30
2018-11-26T14:25:44.692Z,14.07
2018-11-26T14:28:13.931Z,12.77
2018-11-26T14:30:43.410Z,13.67
2018-11-26T14:33:12.692Z,12.80
2018-11-26T14:35:41.991Z,12.73
2018-11-26T14:38:11.272Z,14.50
2018-11-26T14:40:42.638Z,12.60
2018-11-26T14:43:18.458Z,11.70
2018-11-26T14:45:47.744Z,12.77
2018-11-26T14:48:17.042Z,9.87
2018-11-26T14:50:46.330Z,11.87
2018-11-26T14:53:16.765Z,15.00
2018-11-26T14:55:46.153Z,8.63
2018-11-26T14:58:15.564Z,10.73
2018-11-26T15:00:44.875Z,10.73
2018-11-26T15:03:14.128Z,10.00
2018-11-26T15:05:43.477Z,9.60
2018-11-26T15:08:12.764Z,9.00
2018-11-26T15:10:42.063Z,10.30
2018-11-26T15:13:11.325Z,11.27
2018-11-26T15:15:40.665Z,10.27
2018-11-26T15:18:09.905Z,11.10
2018-11-26T15:20:39.206Z,9.90
2018-11-26T15:23:08.534Z,8.87
2018-11-26T15:25:37.869Z,11.77
2018-11-26T15:28:10.550Z,10.90
2018-11-26T15:30:39.843Z,7.87
2018-11-26T15:33:09.227Z,9.17
2018-11-26T15:35:38.635Z,11.43
2018-11-26T15:38:08.115Z,8.60
2018-11-26T15:40:37.629Z,10.80
2018-11-26T15:43:07.404Z,10.23
2018-11-26T15:45:37.062Z,9.57
2018-11-26T15:48:11.149Z,9.13
2018-11-26T15:50:40.795Z,10.67
2018-11-26T15:53:10.602Z,10.10
2018-11-26T15:55:39.957Z,9.73
2018-11-26T15:58:10.107Z,9.60
2018-11-26T16:00:39.530Z,11.63
2018-11-26T16:03:08.915Z,10.63
2018-11-26T16:05:38.312Z,10.90
2018-11-26T16:08:10.092Z,8.43
2018-11-26T16:10:40.109Z,11.83
2018-11-26T16:13:10.574Z,11.67
2018-11-26T16:15:41.235Z,9.37
2018-11-26T16:18:11.966Z,8.27
2018-11-26T16:20:41.220Z,9.50
2018-11-26T16:23:11.009Z,8.53
2018-11-26T16:25:42.826Z,11.13
2018-11-26T16:28:14.292Z,9.50
2018-11-26T16:30:43.689Z,10.03
2018-11-26T16:33:13.207Z,8.30
2018-11-26T16:35:42.518Z,10.27
2018-11-26T16:38:12.143Z,9.20
2018-11-26T16:40:41.434Z,9.57
2018-11-26T16:43:10.759Z,6.93
2018-11-26T16:45:40.821Z,9.63
2018-11-26T16:48:10.079Z,8.63
2018-11-26T16:50:39.499Z,8.90
2018-11-26T16:53:08.813Z,9.27
2018-11-26T16:55:38.094Z,8.77
2018-11-26T16:58:07.542Z,7.90
2018-11-26T17:00:36.913Z,9.07
2018-11-26T17:03:06.373Z,7.03
2018-11-26T17:05:36.792Z,9.20
2018-11-26T17:08:07.822Z,7.37
2018-11-26T17:10:37.046Z,8.13
2018-11-26T17:13:06.894Z,7.57
2018-11-26T17:15:36.292Z,8.00
2018-11-26T17:18:07.270Z,9.67
2018-11-26T17:20:37.411Z,12.50
2018-11-26T17:23:07.225Z,7.73
2018-11-26T17:25:36.482Z,9.97
2018-11-26T17:28:06.332Z,7.13
2018-11-26T17:30:36.236Z,6.37
2018-11-26T17:33:06.791Z,8.43
2018-11-26T17:35:36.042Z,7.50
2018-11-26T17:38:05.567Z,6.67
2018-11-26T17:40:35.064Z,5.73
2018-11-26T17:43:04.379Z,6.67
2018-11-26T17:45:33.806Z,7.50
2018-11-26T17:48:03.116Z,9.20
2018-11-26T17:50:34.899Z,6.73
2018-11-26T17:53:04.752Z,8.03
2018-11-26T17:55:37.721Z,5.57
2018-11-26T17:58:07.033Z,5.90
2018-11-26T18:00:36.472Z,8.07
2018-11-26T18:03:06.263Z,6.67
2018-11-26T18:05:35.497Z,5.80
2018-11-26T18:08:08.054Z,4.63
2018-11-26T18:10:37.322Z,4.67
2018-11-26T18:13:06.938Z,4.73
2018-11-26T18:15:36.275Z,5.07
2018-11-26T18:18:09.758Z,6.40
2018-11-26T18:20:39.772Z,4.77
2018-11-26T18:23:10.060Z,4.93
2018-11-26T18:25:39.412Z,4.10
2018-11-26T18:28:13.861Z,5.07
2018-11-26T18:30:44.648Z,4.33
2018-11-26T18:33:14.392Z,4.90
2018-11-26T18:35:43.992Z,4.17
2018-11-26T18:38:13.271Z,5.93
2018-11-26T18:40:44.839Z,4.37
2018-11-26T18:43:14.122Z,6.53
2018-11-26T18:45:43.533Z,5.40
2018-11-26T18:48:13.900Z,4.90
2018-11-26T18:50:43.218Z,6.17
2018-11-26T18:53:12.511Z,4.80
2018-11-26T18:55:42.779Z,4.07
2018-11-26T18:58:12.161Z,4.03
2018-11-26T19:02:09.291Z,4.27
2018-11-26T19:04:38.602Z,5.63
2018-11-26T19:07:07.967Z,4.53
2018-11-26T19:09:37.218Z,4.43
2018-11-26T19:12:07.170Z,5.37
2018-11-26T19:14:36.414Z,4.70
2018-11-26T19:17:05.962Z,4.43
2018-11-26T19:19:35.198Z,4.50
2018-11-26T19:22:04.638Z,4.50
2018-11-26T19:24:33.906Z,5.57
2018-11-26T19:27:03.229Z,4.83
2018-11-26T19:29:32.572Z,5.20
2018-11-26T19:32:01.802Z,6.93
2018-11-26T19:34:31.054Z,5.77
2018-11-26T19:37:00.354Z,5.23
2018-11-26T19:39:29.640Z,5.97
2018-11-26T19:41:59.042Z,5.53
2018-11-26T19:44:28.279Z,5.73
2018-11-26T19:46:57.523Z,4.60
2018-11-26T19:49:26.829Z,5.03
2018-11-26T19:51:56.110Z,5.30
2018-11-26T19:54:25.578Z,4.60
2018-11-26T19:56:54.902Z,4.87
2018-11-26T19:59:25.119Z,4.97
2018-11-26T20:01:54.510Z,5.93
2018-11-26T20:04:31.451Z,6.23
2018-11-26T20:07:00.710Z,6.77
2018-11-26T20:09:29.977Z,5.37
2018-11-26T20:11:59.188Z,5.80
2018-11-26T20:14:28.461Z,5.77
2018-11-26T20:16:57.847Z,7.20
2018-11-26T20:19:27.154Z,5.93
2018-11-26T20:21:56.504Z,5.93
2018-11-26T20:24:25.786Z,6.40
2018-11-26T20:26:55.075Z,6.50
2018-11-26T20:29:24.341Z,5.37
2018-11-26T20:31:53.591Z,5.80
2018-11-26T20:34:22.934Z,5.90
2018-11-26T20:36:52.247Z,4.90
2018-11-26T20:39:21.535Z,4.63
2018-11-26T20:41:50.831Z,4.73
2018-11-26T20:44:20.376Z,4.90
2018-11-26T20:46:49.634Z,5.77
2018-11-26T20:49:18.916Z,6.27
2018-11-26T20:51:48.198Z,5.80
2018-11-26T20:54:17.681Z,3.90
2018-11-26T20:56:47.853Z,4.40
2018-11-26T20:59:17.229Z,8.23
2018-11-26T21:01:46.473Z,3.93
2018-11-26T21:04:15.799Z,3.90
2018-11-26T21:06:45.107Z,4.40
2018-11-26T21:09:14.489Z,5.07
2018-11-26T21:11:43.871Z,4.50
2018-11-26T21:14:13.119Z,4.00
2018-11-26T21:16:42.389Z,5.73
2018-11-26T21:19:11.770Z,4.23
2018-11-26T21:21:41.026Z,3.77
2018-11-26T21:24:10.819Z,6.13
2018-11-26T21:26:40.126Z,3.47
2018-11-26T21:29:09.347Z,3.97
2018-11-26T21:31:38.599Z,4.27
2018-11-26T21:34:07.849Z,4.53
2018-11-26T21:36:38.176Z,3.37
2018-11-26T21:39:10.010Z,4.57
2018-11-26T21:41:39.271Z,4.80
2018-11-26T21:44:08.506Z,5.47
2018-11-26T21:46:37.747Z,4.47
2018-11-26T21:49:06.996Z,5.70
2018-11-26T21:51:36.671Z,3.90
2018-11-26T21:54:06.077Z,4.57
2018-11-26T21:56:35.337Z,4.60
2018-11-26T21:59:04.930Z,4.37
2018-11-26T22:01:34.163Z,4.30
2018-11-26T22:04:04.313Z,4.17
2018-11-26T22:06:33.551Z,5.40
2018-11-26T22:09:02.888Z,4.97
2018-11-26T22:11:32.183Z,3.93
2018-11-26T22:14:01.450Z,5.53
2018-11-26T22:16:30.799Z,4.23
2018-11-26T22:19:00.132Z,4.97
2018-11-26T22:21:29.419Z,4.40
2018-11-26T22:23:58.699Z,4.93
2018-11-26T22:26:29.059Z,4.07
2018-11-26T22:28:58.350Z,5.63
2018-11-26T22:31:27.623Z,4.40
2018-11-26T22:33:56.885Z,5.53
2018-11-26T22:36:26.338Z,4.70
2018-11-26T22:38:56.124Z,4.97
2018-11-26T22:41:25.679Z,4.67
2018-11-26T22:43:55.026Z,5.80
2018-11-26T22:46:24.876Z,4.30
2018-11-26T22:48:54.162Z,5.60
2018-11-26T22:51:23.467Z,5.80
2018-11-26T22:53:52.758Z,5.80
2018-11-26T22:56:23.402Z,6.30
2018-11-26T22:58:52.712Z,6.43
2018-11-26T23:01:21.975Z,6.23
2018-11-26T23:03:51.329Z,5.70
2018-11-26T23:06:20.745Z,5.27
2018-11-26T23:08:50.028Z,5.47
2018-11-26T23:11:19.346Z,5.90
2018-11-26T23:13:49.623Z,5.90
2018-11-26T23:16:18.901Z,5.70
2018-11-26T23:18:48.155Z,6.20
2018-11-26T23:21:17.531Z,6.20
2018-11-26T23:23:46.772Z,7.13
2018-11-26T23:26:16.075Z,7.67
2018-11-26T23:28:45.330Z,8.90
2018-11-26T23:31:14.833Z,7.43
2018-11-26T23:33:44.941Z,7.80
2018-11-26T23:36:14.226Z,8.70
2018-11-26T23:38:43.479Z,9.13
2018-11-26T23:41:12.825Z,9.13
2018-11-26T23:43:42.080Z,10.20
2018-11-26T23:46:11.347Z,11.27
2018-11-26T23:48:40.776Z,11.37
2018-11-26T23:51:10.527Z,12.23
2018-11-26T23:53:40.008Z,12.87
2018-11-26T23:56:09.488Z,12.17
2018-11-26T23:58:39.158Z,13.60
